CheckWX is a tool to help pilots better visualize weather data.  It is not intended as a substitute for an official pre-flight weather briefing.

19:28:44 UTC

KMEH METAR
Meacham Airport
Meacham, Oregon, USA
Current

33 mins ago

KMEH 221856Z AUTO 00000KT 9SM BKN120 M03/M07 A2994 RMK AO2 SNE52 SLP189 P0000 T10331072
Observed
Feb-22 @ 18:56 UTC
Visibility
9 SM
Flight Rules
VFR
Cloud Levels
  • Broken at 12,000' AGL
Temperature
-3°C / 27°F
Dewpoint
-7°C / 19°F
Humidity
74%
Altimeter
29.94" Hg
Pressure
1018.9 hPa
Current Rain
0.01"
Previous

2 hours ago

KMEH 221756Z AUTO 00000KT 9SM -SN CLR M07/M11 A2994 RMK AO2 SNB41 SLP193 P0000 60000 T10721106 11072 21206 58009
Observed
Feb-22 @ 17:56 UTC
Visibility
9 SM
Flight Rules
VFR
Conditions
Light Snow
Cloud Levels
  • Clear skies
Temperature
-7°C / 19°F
Dewpoint
-11°C / 12°F
Humidity
73%
Altimeter
29.94" Hg
Pressure
1019.3 hPa
Current Rain
0.01"
Previous

3 hours ago

KMEH 221656Z AUTO 00000KT 10SM CLR M16/M18 A2995 RMK AO2 SLP209 T11611183
Observed
Feb-22 @ 16:56 UTC
Visibility
10 SM
Flight Rules
VFR
Cloud Levels
  • Clear skies
Temperature
-16°C / 3°F
Dewpoint
-18°C / -0°F
Humidity
85%
Altimeter
29.95" Hg
Pressure
1020.9 hPa